createdAt,value
2024-01-11T00:03:54.485Z,38.55
2024-01-11T00:08:58.341Z,40.20
2024-01-11T00:14:02.101Z,39.40
2024-01-11T00:19:07.396Z,39.05
2024-01-11T00:24:11.219Z,35.85
2024-01-11T00:29:15.009Z,33.88
2024-01-11T00:34:20.157Z,35.90
2024-01-11T00:39:24.098Z,44.05
2024-01-11T00:44:27.874Z,47.33
2024-01-11T00:49:33.280Z,41.00
2024-01-11T00:54:37.581Z,40.50
2024-01-11T00:59:42.206Z,38.63
2024-01-11T01:04:47.287Z,36.08
2024-01-11T01:09:51.482Z,40.28
2024-01-11T01:14:55.171Z,38.08
2024-01-11T01:20:00.395Z,44.90
2024-01-11T01:25:05.237Z,46.15
2024-01-11T01:30:10.286Z,38.15
2024-01-11T01:35:15.454Z,43.25
2024-01-11T01:40:19.328Z,43.58
2024-01-11T01:45:23.086Z,41.33
2024-01-11T01:50:28.606Z,42.40
2024-01-11T01:55:33.100Z,45.88
2024-01-11T02:00:36.898Z,46.08
2024-01-11T02:05:42.403Z,42.72
2024-01-11T02:10:47.835Z,44.58
2024-01-11T02:15:51.834Z,45.05
2024-01-11T02:20:57.846Z,42.15
2024-01-11T02:26:03.061Z,42.92
2024-01-11T02:31:06.903Z,40.40
2024-01-11T02:36:11.020Z,49.38
2024-01-11T02:41:18.152Z,46.00
2024-01-11T02:46:21.866Z,46.75
2024-01-11T02:51:25.586Z,54.58
2024-01-11T02:56:30.777Z,47.20
2024-01-11T03:01:34.635Z,38.88
2024-01-11T03:06:38.427Z,42.90
2024-01-11T03:11:43.652Z,38.92
2024-01-11T03:16:47.513Z,44.90
2024-01-11T03:21:51.224Z,40.42
2024-01-11T03:26:56.384Z,47.25
2024-01-11T03:32:00.155Z,41.50
2024-01-11T03:37:03.865Z,45.03
2024-01-11T03:42:09.019Z,50.03
2024-01-11T03:47:12.798Z,53.45
2024-01-11T03:52:16.583Z,45.42
2024-01-11T03:57:21.675Z,44.30
2024-01-11T04:02:25.463Z,38.95
2024-01-11T04:07:29.308Z,41.95
2024-01-11T04:12:34.403Z,40.30
2024-01-11T04:17:38.381Z,35.08
2024-01-11T04:22:42.291Z,43.22
2024-01-11T04:27:47.460Z,42.33
2024-01-11T04:32:51.318Z,38.13
2024-01-11T04:37:55.161Z,37.25
2024-01-11T04:43:00.376Z,40.28
2024-01-11T04:48:04.504Z,40.78
2024-01-11T04:53:08.389Z,37.60
2024-01-11T04:58:13.586Z,37.22
2024-01-11T05:03:17.425Z,38.50
2024-01-11T05:08:21.218Z,36.90
2024-01-11T05:13:26.661Z,37.83
2024-01-11T05:18:33.854Z,39.17
2024-01-11T05:23:38.816Z,39.65
2024-01-11T05:28:43.905Z,38.22
2024-01-11T05:33:48.685Z,35.35
2024-01-11T05:38:53.003Z,38.65
2024-01-11T05:43:58.126Z,34.38
2024-01-11T05:49:01.889Z,32.28
2024-01-11T05:54:05.761Z,34.78
2024-01-11T05:59:10.913Z,44.33
2024-01-11T06:04:14.712Z,29.77
2024-01-11T06:09:18.419Z,36.13
2024-01-11T06:14:23.770Z,34.88
2024-01-11T06:19:27.537Z,33.63
2024-01-11T06:24:31.340Z,38.45
2024-01-11T06:29:36.436Z,40.03
2024-01-11T06:34:42.537Z,32.40
2024-01-11T06:39:46.430Z,36.60
2024-01-11T06:44:51.665Z,35.00
2024-01-11T06:49:55.559Z,36.80
2024-01-11T06:54:59.310Z,38.80
2024-01-11T07:00:05.148Z,33.83
2024-01-11T07:05:09.916Z,31.75
2024-01-11T07:10:13.739Z,46.25
2024-01-11T07:15:19.023Z,33.83
2024-01-11T07:20:22.819Z,37.58
2024-01-11T07:25:26.567Z,34.60
2024-01-11T07:30:31.651Z,43.95
2024-01-11T07:35:35.615Z,41.30
2024-01-11T07:40:42.492Z,36.90
2024-01-11T07:45:48.759Z,39.47
2024-01-11T07:50:52.573Z,35.55
2024-01-11T07:55:56.329Z,32.70
2024-01-11T08:01:01.479Z,28.23
2024-01-11T08:06:06.327Z,37.05
2024-01-11T08:11:10.562Z,39.65
2024-01-11T08:16:19.374Z,35.70
2024-01-11T08:21:23.446Z,40.08
2024-01-11T08:26:27.321Z,38.72
2024-01-11T08:31:32.468Z,41.15
2024-01-11T08:36:36.348Z,48.10
2024-01-11T08:41:40.451Z,41.60
2024-01-11T08:46:46.068Z,38.85
2024-01-11T08:51:49.846Z,39.00
2024-01-11T08:56:54.050Z,41.40
2024-01-11T09:02:10.140Z,47.78
2024-01-11T09:07:19.013Z,46.53
2024-01-11T09:12:22.877Z,49.55
2024-01-11T09:17:28.027Z,42.25
2024-01-11T09:22:31.886Z,47.72
2024-01-11T09:27:36.016Z,44.20
2024-01-11T09:32:41.561Z,49.47
2024-01-11T09:37:47.345Z,47.35
2024-01-11T09:42:51.251Z,44.25
2024-01-11T09:47:56.542Z,46.88
2024-01-11T09:53:04.471Z,51.95
2024-01-11T09:58:10.023Z,49.28
2024-01-11T10:03:15.591Z,50.20
2024-01-11T10:08:20.996Z,45.38
2024-01-11T10:13:30.025Z,47.05
2024-01-11T10:18:35.233Z,54.88
2024-01-11T10:23:40.163Z,52.10
2024-01-11T10:28:46.636Z,41.72
2024-01-11T10:33:51.803Z,47.95
2024-01-11T10:38:57.448Z,51.33
2024-01-11T10:44:04.121Z,46.92
2024-01-11T10:49:11.537Z,50.73
2024-01-11T10:54:16.026Z,54.78
2024-01-11T10:59:20.587Z,44.45
2024-01-11T11:04:27.059Z,46.42
2024-01-11T11:09:32.696Z,49.70
2024-01-11T11:14:37.098Z,52.33
2024-01-11T11:19:42.667Z,48.92
2024-01-11T11:24:46.434Z,49.10
2024-01-11T11:29:51.556Z,47.85
2024-01-11T11:34:57.768Z,50.90
2024-01-11T11:40:02.207Z,50.35
2024-01-11T11:45:07.843Z,47.97
2024-01-11T11:50:15.043Z,49.40
2024-01-11T11:55:19.200Z,48.45
2024-01-11T12:00:23.453Z,44.78
2024-01-11T12:05:28.648Z,49.58
2024-01-11T12:10:32.682Z,49.53
2024-01-11T12:15:36.751Z,44.83
2024-01-11T12:20:42.542Z,47.42
2024-01-11T12:25:46.448Z,46.10
2024-01-11T12:30:50.399Z,45.63
2024-01-11T12:35:56.051Z,45.75
2024-01-11T12:40:59.955Z,47.17
2024-01-11T12:46:04.348Z,39.83
2024-01-11T12:51:14.624Z,28.98
2024-01-11T12:56:25.660Z,26.00
2024-01-11T13:01:29.619Z,25.50
2024-01-11T13:06:35.525Z,26.77
2024-01-11T13:11:39.494Z,27.58
2024-01-11T13:16:43.339Z,29.77
2024-01-11T13:21:48.474Z,28.08
2024-01-11T13:26:52.338Z,32.08
2024-01-11T13:31:56.420Z,32.50
2024-01-11T13:37:02.193Z,35.00
2024-01-11T13:42:10.391Z,29.23
2024-01-11T13:47:14.262Z,30.33
2024-01-11T13:52:19.437Z,31.62
2024-01-11T13:57:23.480Z,32.78
2024-01-11T14:02:27.329Z,31.65
2024-01-11T14:07:32.670Z,32.03
2024-01-11T14:12:36.998Z,32.53
2024-01-11T14:17:41.708Z,33.50
2024-01-11T14:22:50.416Z,29.73
2024-01-11T14:27:54.840Z,30.65
2024-01-11T14:32:58.811Z,29.23
2024-01-11T14:38:05.470Z,29.45
2024-01-11T14:43:09.551Z,32.70
2024-01-11T14:48:13.613Z,32.53
2024-01-11T14:53:19.622Z,33.25
2024-01-11T14:58:23.395Z,31.42
2024-01-11T15:03:27.240Z,32.67
2024-01-11T15:08:32.481Z,36.13
2024-01-11T15:13:36.307Z,32.92
2024-01-11T15:18:40.184Z,31.95
2024-01-11T15:23:45.406Z,29.05
2024-01-11T15:28:49.408Z,36.28
2024-01-11T15:33:53.356Z,33.90
2024-01-11T15:39:07.864Z,32.05
2024-01-11T15:44:17.437Z,34.38
2024-01-11T15:49:21.212Z,35.17
2024-01-11T15:54:27.272Z,35.55
2024-01-11T15:59:31.058Z,35.95
2024-01-11T16:04:35.038Z,35.03
2024-01-11T16:09:40.169Z,34.70
2024-01-11T16:14:46.017Z,34.15
2024-01-11T16:19:49.845Z,37.67
2024-01-11T16:24:55.562Z,36.00
2024-01-11T16:30:02.821Z,34.95
2024-01-11T16:35:07.747Z,36.20
2024-01-11T16:40:14.517Z,41.88
2024-01-11T16:45:19.467Z,33.28
2024-01-11T16:50:23.222Z,37.15
2024-01-11T16:55:28.905Z,35.10
2024-01-11T17:00:32.648Z,37.97
2024-01-11T17:05:37.186Z,33.08
2024-01-11T17:10:42.476Z,37.20
2024-01-11T17:15:46.288Z,40.78
2024-01-11T17:20:50.209Z,39.92
2024-01-11T17:25:55.467Z,41.17
2024-01-11T17:30:59.313Z,42.70
2024-01-11T17:36:03.243Z,46.10
2024-01-11T17:41:08.521Z,40.83
2024-01-11T17:46:12.309Z,43.42
2024-01-11T17:51:16.174Z,47.10
2024-01-11T17:56:22.546Z,41.45
2024-01-11T18:01:27.824Z,49.75
2024-01-11T18:06:31.827Z,50.25
2024-01-11T18:11:37.220Z,47.40
2024-01-11T18:16:41.016Z,44.88
2024-01-11T18:21:44.747Z,48.95
2024-01-11T18:26:50.046Z,44.05
2024-01-11T18:31:53.874Z,49.80
2024-01-11T18:36:57.617Z,49.63
2024-01-11T18:42:03.232Z,55.83
2024-01-11T18:47:07.612Z,53.80
2024-01-11T18:52:11.403Z,55.83
2024-01-11T18:57:17.182Z,63.42
2024-01-11T19:02:21.034Z,56.88
2024-01-11T19:07:24.817Z,61.97
2024-01-11T19:12:29.971Z,61.35
2024-01-11T19:17:33.772Z,60.03
2024-01-11T19:22:37.513Z,55.28
2024-01-11T19:27:42.644Z,61.00
2024-01-11T19:32:46.834Z,71.80
2024-01-11T19:37:50.761Z,59.53
2024-01-11T19:42:55.838Z,70.25
2024-01-11T19:47:59.752Z,65.40
2024-01-11T19:53:03.718Z,61.80
2024-01-11T19:58:08.900Z,63.40
2024-01-11T20:03:12.739Z,71.05
2024-01-11T20:08:16.542Z,68.18
2024-01-11T20:13:21.709Z,68.32
2024-01-11T20:18:28.618Z,64.37
2024-01-11T20:23:33.228Z,66.27
2024-01-11T20:28:38.461Z,59.83
2024-01-11T20:33:42.412Z,66.93
2024-01-11T20:38:46.577Z,62.72
2024-01-11T20:43:52.806Z,72.35
2024-01-11T20:48:57.286Z,68.80
2024-01-11T20:54:02.073Z,64.87
2024-01-11T20:59:07.313Z,62.25
2024-01-11T21:04:11.213Z,68.93
2024-01-11T21:09:15.026Z,72.22
2024-01-11T21:14:20.715Z,64.57
2024-01-11T21:19:24.599Z,57.72
2024-01-11T21:24:28.399Z,68.28
2024-01-11T21:29:34.225Z,70.62
2024-01-11T21:34:38.054Z,61.05
2024-01-11T21:39:41.826Z,68.80
2024-01-11T21:44:46.990Z,67.87
2024-01-11T21:49:50.968Z,79.22
2024-01-11T21:54:54.742Z,75.50
2024-01-11T21:59:59.885Z,81.90
2024-01-11T22:05:04.350Z,80.65
2024-01-11T22:10:10.249Z,68.07
2024-01-11T22:15:15.378Z,86.50
2024-01-11T22:20:19.388Z,70.43
2024-01-11T22:25:23.223Z,66.70
2024-01-11T22:30:28.472Z,62.28
2024-01-11T22:35:32.310Z,64.15
2024-01-11T22:40:36.111Z,66.95
2024-01-11T22:45:41.195Z,63.85
2024-01-11T22:50:44.942Z,64.70
2024-01-11T22:55:48.662Z,65.22
2024-01-11T23:00:54.302Z,64.62
2024-01-11T23:05:58.444Z,66.25
2024-01-11T23:11:04.073Z,60.97
2024-01-11T23:16:09.268Z,59.25
2024-01-11T23:21:13.045Z,68.72
2024-01-11T23:26:16.795Z,66.47
2024-01-11T23:31:21.980Z,56.58
2024-01-11T23:36:25.903Z,60.75
2024-01-11T23:41:29.644Z,66.95
2024-01-11T23:46:34.791Z,61.58
2024-01-11T23:51:38.890Z,66.68
2024-01-11T23:56:43.089Z,55.58
